createdAt,value
2019-05-05T00:02:29.203Z,4.20
2019-05-05T00:05:18.599Z,4.20
2019-05-05T00:07:49.315Z,4.20
2019-05-05T00:10:29.188Z,4.10
2019-05-05T00:13:15.756Z,4.10
2019-05-05T00:16:04.611Z,4.10
2019-05-05T00:18:35.603Z,4.10
2019-05-05T00:21:06.227Z,4.10
2019-05-05T00:23:36.623Z,4.10
2019-05-05T00:26:07.160Z,4.10
2019-05-05T00:28:37.709Z,4.10
2019-05-05T00:31:08.283Z,4.10
2019-05-05T00:33:38.913Z,4.00
2019-05-05T00:36:09.476Z,3.90
2019-05-05T00:38:44.116Z,3.90
2019-05-05T00:41:14.941Z,3.80
2019-05-05T00:43:45.660Z,3.70
2019-05-05T00:46:21.984Z,3.70
2019-05-05T00:48:55.048Z,3.70
2019-05-05T00:51:24.617Z,3.60
2019-05-05T00:53:57.899Z,3.60
2019-05-05T00:56:31.631Z,3.50
2019-05-05T00:59:04.982Z,3.40
2019-05-05T01:02:09.533Z,3.40
2019-05-05T01:04:55.113Z,3.30
2019-05-05T01:07:25.960Z,3.20
2019-05-05T01:09:56.520Z,3.20
2019-05-05T01:12:27.685Z,3.10
2019-05-05T01:15:00.004Z,3.00
2019-05-05T01:17:30.467Z,2.90
2019-05-05T01:20:06.162Z,2.80
2019-05-05T01:22:34.201Z,2.70
2019-05-05T01:25:05.456Z,2.60
2019-05-05T01:27:36.252Z,2.60
2019-05-05T01:30:11.786Z,2.50
2019-05-05T01:32:44.756Z,2.40
2019-05-05T01:35:15.611Z,2.40
2019-05-05T01:37:54.821Z,2.30
2019-05-05T01:40:47.046Z,2.20
2019-05-05T01:43:20.097Z,2.20
2019-05-05T01:45:50.763Z,2.10
2019-05-05T01:48:21.380Z,2.10
2019-05-05T01:50:54.378Z,2.10
2019-05-05T01:53:25.167Z,2.00
2019-05-05T01:55:55.899Z,2.00
2019-05-05T01:58:26.890Z,2.00
2019-05-05T02:00:58.407Z,1.90
2019-05-05T02:03:29.236Z,1.80
2019-05-05T02:06:00.086Z,1.80
2019-05-05T02:08:30.773Z,1.80
2019-05-05T02:11:01.698Z,1.80
2019-05-05T02:13:34.660Z,1.80
2019-05-05T02:16:05.271Z,1.80
2019-05-05T02:18:36.115Z,1.70
2019-05-05T02:21:08.331Z,1.60
2019-05-05T02:23:39.220Z,1.60
2019-05-05T02:26:11.651Z,1.50
2019-05-05T02:29:01.875Z,1.50
2019-05-05T02:31:49.899Z,1.50
2019-05-05T02:34:20.492Z,1.40
2019-05-05T02:36:51.050Z,1.30
2019-05-05T02:39:23.375Z,1.30
2019-05-05T02:41:55.386Z,1.30
2019-05-05T02:44:27.472Z,1.30
2019-05-05T02:47:25.708Z,1.30
2019-05-05T02:50:05.362Z,1.30
2019-05-05T02:52:38.459Z,1.30
2019-05-05T02:55:09.831Z,1.30
2019-05-05T02:57:41.208Z,1.30
2019-05-05T03:00:29.335Z,1.30
2019-05-05T03:03:00.727Z,1.30
2019-05-05T03:05:31.585Z,1.20
2019-05-05T03:08:04.274Z,1.30
2019-05-05T03:10:35.335Z,1.30
2019-05-05T03:13:06.283Z,1.20
2019-05-05T03:16:10.375Z,1.20
2019-05-05T03:18:40.918Z,1.10
2019-05-05T03:21:13.884Z,1.10
2019-05-05T03:23:46.059Z,1.10
2019-05-05T03:26:17.323Z,1.10
2019-05-05T03:28:55.797Z,1.10
2019-05-05T03:31:34.906Z,1.10
2019-05-05T03:34:07.185Z,1.20
2019-05-05T03:36:37.915Z,1.20
2019-05-05T03:39:15.151Z,1.10
2019-05-05T03:42:05.512Z,1.20
2019-05-05T03:44:44.045Z,1.20
2019-05-05T03:47:17.063Z,1.20
2019-05-05T03:49:53.554Z,1.20
2019-05-05T03:52:24.545Z,1.30
2019-05-05T03:54:58.208Z,1.30
2019-05-05T03:57:29.051Z,1.50
2019-05-05T04:00:04.340Z,1.60
2019-05-05T04:02:44.556Z,1.60
2019-05-05T04:05:36.804Z,1.70
2019-05-05T04:08:07.911Z,1.70
2019-05-05T04:10:41.635Z,1.80
2019-05-05T04:13:16.851Z,1.90
2019-05-05T04:16:06.763Z,2.00
2019-05-05T04:18:44.275Z,2.20
2019-05-05T04:21:14.824Z,2.40
2019-05-05T04:23:48.460Z,2.50
2019-05-05T04:26:18.992Z,2.60
2019-05-05T04:28:49.717Z,2.70
2019-05-05T04:31:21.212Z,2.80
2019-05-05T04:33:53.703Z,2.70
2019-05-05T04:36:25.377Z,2.90
2019-05-05T04:38:58.408Z,3.00
2019-05-05T04:41:28.861Z,3.10
2019-05-05T04:44:03.895Z,3.20
2019-05-05T04:46:33.883Z,3.30
2019-05-05T04:49:20.503Z,3.40
2019-05-05T04:51:53.893Z,3.50
2019-05-05T04:54:29.367Z,3.60
2019-05-05T04:57:01.807Z,3.70
2019-05-05T04:59:33.986Z,3.80
2019-05-05T05:02:10.273Z,3.90
2019-05-05T05:04:49.022Z,4.00
2019-05-05T05:07:19.962Z,4.10
2019-05-05T05:09:56.619Z,4.10
2019-05-05T05:12:27.130Z,4.20
2019-05-05T05:14:59.207Z,4.30
2019-05-05T05:17:37.115Z,4.50
2019-05-05T05:20:08.512Z,4.70
2019-05-05T05:22:39.171Z,4.90
2019-05-05T05:25:15.087Z,5.10
2019-05-05T05:27:45.603Z,5.20
2019-05-05T05:30:16.577Z,5.40
2019-05-05T05:32:47.199Z,5.60
2019-05-05T05:35:18.632Z,5.80
2019-05-05T05:37:49.196Z,5.90
2019-05-05T05:40:27.771Z,6.10
2019-05-05T05:42:59.293Z,6.30
2019-05-05T05:45:43.851Z,6.50
2019-05-05T05:48:20.959Z,6.70
2019-05-05T05:50:56.604Z,6.90
2019-05-05T05:53:28.863Z,7.00
2019-05-05T05:56:04.173Z,7.10
2019-05-05T05:58:34.077Z,7.30
2019-05-05T06:01:04.912Z,7.40
2019-05-05T06:03:35.277Z,7.50
2019-05-05T06:06:05.697Z,7.50
2019-05-05T06:08:36.267Z,7.70
2019-05-05T06:11:06.755Z,7.70
2019-05-05T06:13:37.351Z,7.80
2019-05-05T06:16:07.879Z,7.90
2019-05-05T06:18:38.491Z,7.90
2019-05-05T06:21:08.884Z,7.90
2019-05-05T06:23:39.471Z,8.00
2019-05-05T06:26:09.999Z,8.00
2019-05-05T06:28:40.780Z,8.10
2019-05-05T06:31:11.288Z,8.20
2019-05-05T06:33:43.807Z,8.20
2019-05-05T06:36:14.967Z,8.30
2019-05-05T06:38:45.660Z,8.30
2019-05-05T06:41:40.970Z,8.30
2019-05-05T06:44:25.397Z,8.30
2019-05-05T06:47:04.921Z,8.30
2019-05-05T06:49:37.164Z,8.20
2019-05-05T06:52:08.933Z,8.30
2019-05-05T06:54:39.439Z,8.30
2019-05-05T06:57:10.059Z,8.30
2019-05-05T06:59:40.715Z,8.30
2019-05-05T07:02:11.196Z,8.40
2019-05-05T07:04:44.306Z,8.50
2019-05-05T07:07:14.772Z,8.50
2019-05-05T07:09:48.975Z,8.70
2019-05-05T07:12:19.616Z,8.90
2019-05-05T07:14:50.258Z,9.00
2019-05-05T07:17:20.687Z,9.20
2019-05-05T07:19:51.606Z,9.20
2019-05-05T07:22:25.331Z,9.30
2019-05-05T07:24:56.227Z,9.30
2019-05-05T07:27:26.860Z,9.40
2019-05-05T07:29:57.448Z,9.50
2019-05-05T07:32:29.414Z,9.60
2019-05-05T07:35:20.979Z,9.80
2019-05-05T07:37:53.751Z,9.90
2019-05-05T07:40:24.322Z,10.00
2019-05-05T07:42:54.935Z,10.10
2019-05-05T07:45:26.174Z,10.10
2019-05-05T07:47:59.599Z,10.10
2019-05-05T07:50:32.618Z,10.00
2019-05-05T07:53:12.359Z,9.90
2019-05-05T07:55:35.979Z,10.00
2019-05-05T07:58:07.591Z,9.90
2019-05-05T08:00:38.123Z,10.00
2019-05-05T08:03:08.580Z,9.90
2019-05-05T08:05:39.317Z,10.10
2019-05-05T08:08:09.976Z,10.10
2019-05-05T08:10:43.566Z,10.20
2019-05-05T08:13:14.132Z,10.20
2019-05-05T08:15:56.657Z,10.30
2019-05-05T08:18:27.666Z,10.40
2019-05-05T08:21:01.295Z,10.50
2019-05-05T08:23:40.601Z,10.60
2019-05-05T08:26:43.940Z,10.70
2019-05-05T08:29:36.405Z,10.80
2019-05-05T08:32:19.692Z,10.90
2019-05-05T08:34:59.720Z,10.90
2019-05-05T08:37:23.686Z,11.10
2019-05-05T08:39:54.512Z,11.10
2019-05-05T08:42:28.771Z,11.40
2019-05-05T08:44:59.481Z,11.50
2019-05-05T08:47:30.415Z,11.60
2019-05-05T08:50:01.337Z,11.70
2019-05-05T08:52:34.162Z,11.80
2019-05-05T08:55:05.212Z,11.70
2019-05-05T08:57:36.137Z,11.60
2019-05-05T09:00:08.334Z,11.40
2019-05-05T09:02:39.058Z,11.50
2019-05-05T09:05:09.852Z,11.60
2019-05-05T09:07:40.719Z,11.60
2019-05-05T09:10:14.231Z,11.70
2019-05-05T09:12:44.899Z,11.80
2019-05-05T09:15:18.897Z,11.90
2019-05-05T09:17:51.232Z,12.10
2019-05-05T09:20:24.126Z,12.10
2019-05-05T09:22:57.254Z,12.10
2019-05-05T09:25:44.637Z,12.10
2019-05-05T09:28:26.792Z,12.20
2019-05-05T09:30:59.125Z,12.10
2019-05-05T09:33:30.362Z,12.00
2019-05-05T09:36:01.054Z,12.00
2019-05-05T09:38:35.145Z,12.10
2019-05-05T09:41:06.585Z,12.30
2019-05-05T09:43:40.958Z,12.10
2019-05-05T09:46:14.222Z,12.20
2019-05-05T09:48:48.334Z,12.40
2019-05-05T09:51:21.658Z,12.60
2019-05-05T09:53:54.223Z,12.70
2019-05-05T09:56:27.222Z,12.70
2019-05-05T09:58:58.175Z,12.60
2019-05-05T10:01:29.336Z,12.40
2019-05-05T10:04:10.492Z,12.50
2019-05-05T10:06:47.110Z,12.50
2019-05-05T10:09:14.740Z,12.50
2019-05-05T10:11:45.339Z,12.50
2019-05-05T10:14:16.501Z,12.50
2019-05-05T10:16:47.681Z,12.50
2019-05-05T10:19:18.770Z,12.60
2019-05-05T10:21:50.052Z,12.70
2019-05-05T10:24:30.744Z,12.90
2019-05-05T10:27:04.942Z,13.10
2019-05-05T10:29:39.199Z,13.30
2019-05-05T10:32:11.052Z,13.50
2019-05-05T10:34:44.013Z,13.70
2019-05-05T10:37:16.693Z,13.90
2019-05-05T10:39:56.948Z,13.80
2019-05-05T10:42:46.841Z,13.90
2019-05-05T10:45:24.439Z,14.00
2019-05-05T10:47:56.144Z,14.20
2019-05-05T10:50:28.867Z,14.40
2019-05-05T10:52:59.669Z,14.50
2019-05-05T10:55:34.621Z,14.20
2019-05-05T10:58:05.639Z,14.50
2019-05-05T11:00:47.647Z,14.50
2019-05-05T11:03:18.360Z,14.50
2019-05-05T11:05:53.930Z,14.20
2019-05-05T11:08:34.777Z,14.00
2019-05-05T11:11:05.787Z,14.30
2019-05-05T11:13:38.329Z,14.30
2019-05-05T11:16:20.265Z,14.20
2019-05-05T11:18:56.544Z,14.40
2019-05-05T11:21:30.471Z,14.30
2019-05-05T11:24:02.283Z,14.40
2019-05-05T11:26:36.193Z,14.10
2019-05-05T11:29:07.390Z,14.10
2019-05-05T11:31:38.487Z,14.10
2019-05-05T11:34:18.870Z,14.60
2019-05-05T11:36:57.247Z,14.50
2019-05-05T11:39:28.324Z,14.40
2019-05-05T11:41:59.703Z,14.40
2019-05-05T11:44:31.214Z,14.20
2019-05-05T11:47:03.760Z,13.90
2019-05-05T11:49:37.888Z,13.70
2019-05-05T11:52:08.841Z,13.60
2019-05-05T11:54:39.843Z,13.90
2019-05-05T11:57:10.964Z,14.10
2019-05-05T11:59:43.671Z,14.20
2019-05-05T12:02:14.115Z,14.40
2019-05-05T12:04:44.839Z,14.30
2019-05-05T12:07:15.661Z,14.70
2019-05-05T12:09:51.035Z,15.00
2019-05-05T12:12:21.720Z,15.40
2019-05-05T12:14:53.909Z,15.00
2019-05-05T12:17:37.223Z,14.80
2019-05-05T12:20:08.523Z,14.90
2019-05-05T12:22:39.218Z,15.20
2019-05-05T12:25:28.917Z,15.50
2019-05-05T12:28:04.404Z,15.70
2019-05-05T12:30:34.960Z,15.90
2019-05-05T12:33:05.751Z,15.70
2019-05-05T12:35:36.363Z,15.60
2019-05-05T12:38:06.859Z,16.50
2019-05-05T12:40:37.303Z,15.80
2019-05-05T12:43:07.860Z,15.40
2019-05-05T12:45:40.116Z,14.70
2019-05-05T12:48:24.110Z,13.90
2019-05-05T12:50:55.919Z,13.30
2019-05-05T12:53:26.947Z,12.60
2019-05-05T12:55:57.781Z,12.20
2019-05-05T12:58:28.586Z,12.10
2019-05-05T13:01:15.882Z,13.40
2019-05-05T13:03:46.994Z,14.00
2019-05-05T13:06:17.804Z,14.40
2019-05-05T13:08:48.673Z,14.40
2019-05-05T13:11:19.947Z,14.30
2019-05-05T13:13:50.535Z,14.50
2019-05-05T13:16:24.490Z,16.40
2019-05-05T13:18:53.866Z,15.50
2019-05-05T13:21:50.029Z,14.60
2019-05-05T13:24:39.316Z,13.70
2019-05-05T13:27:24.864Z,13.10
2019-05-05T13:29:55.793Z,12.60
2019-05-05T13:32:26.553Z,12.10
2019-05-05T13:34:58.683Z,11.60
2019-05-05T13:37:29.393Z,10.70
2019-05-05T13:40:00.253Z,10.40
2019-05-05T13:42:30.831Z,10.60
2019-05-05T13:45:07.072Z,10.40
2019-05-05T13:47:37.932Z,11.10
2019-05-05T13:50:23.439Z,11.80
2019-05-05T13:52:55.025Z,12.10
2019-05-05T13:55:25.965Z,13.00
2019-05-05T13:57:56.552Z,13.90
2019-05-05T14:00:27.603Z,13.50
2019-05-05T14:02:58.073Z,14.50
2019-05-05T14:05:29.035Z,15.20
2019-05-05T14:07:59.814Z,15.60
2019-05-05T14:10:30.423Z,15.30
2019-05-05T14:13:01.067Z,14.80
2019-05-05T14:15:34.172Z,14.50
2019-05-05T14:18:04.940Z,15.40
2019-05-05T14:20:35.852Z,14.50
2019-05-05T14:23:06.669Z,15.00
2019-05-05T14:25:37.432Z,14.50
2019-05-05T14:28:07.983Z,14.20
2019-05-05T14:30:56.021Z,14.50
2019-05-05T14:33:29.545Z,14.10
2019-05-05T14:36:07.240Z,13.60
2019-05-05T14:38:49.453Z,13.70
2019-05-05T14:41:19.620Z,13.90
2019-05-05T14:43:50.381Z,13.70
2019-05-05T14:46:23.379Z,14.00
2019-05-05T14:48:54.069Z,13.70
2019-05-05T14:51:24.990Z,14.10
2019-05-05T14:53:55.512Z,14.60
2019-05-05T14:56:36.055Z,14.90
2019-05-05T14:58:58.528Z,14.50
2019-05-05T15:01:29.123Z,14.30
2019-05-05T15:03:59.644Z,14.60
2019-05-05T15:06:47.649Z,14.30
2019-05-05T15:09:46.583Z,14.20
2019-05-05T15:12:24.265Z,14.50
2019-05-05T15:14:54.872Z,14.60
2019-05-05T15:17:29.572Z,14.00
2019-05-05T15:20:00.395Z,12.90
2019-05-05T15:22:31.739Z,13.00
2019-05-05T15:25:04.153Z,13.00
2019-05-05T15:27:38.902Z,12.60
2019-05-05T15:30:10.039Z,12.80
2019-05-05T15:32:41.337Z,11.90
2019-05-05T15:35:14.146Z,11.80
2019-05-05T15:37:44.839Z,11.50
2019-05-05T15:40:15.820Z,11.40
2019-05-05T15:42:47.627Z,11.10
2019-05-05T15:45:18.255Z,10.90
2019-05-05T15:47:49.044Z,10.90
2019-05-05T15:50:19.777Z,10.80
2019-05-05T15:52:50.688Z,10.70
2019-05-05T15:55:21.231Z,10.60
2019-05-05T15:57:51.996Z,10.50
2019-05-05T16:00:22.757Z,10.30
2019-05-05T16:02:54.839Z,10.20
2019-05-05T16:05:25.467Z,10.20
2019-05-05T16:07:56.475Z,10.10
2019-05-05T16:10:27.075Z,10.10
2019-05-05T16:12:57.693Z,10.10
2019-05-05T16:15:50.048Z,9.90
2019-05-05T16:19:01.933Z,9.90
2019-05-05T16:21:38.749Z,9.80
2019-05-05T16:24:36.479Z,9.70
2019-05-05T16:27:18.618Z,9.80
2019-05-05T16:29:38.520Z,9.60
2019-05-05T16:32:19.593Z,9.70
2019-05-05T16:34:41.799Z,9.80
2019-05-05T16:37:14.322Z,9.80
2019-05-05T16:39:45.568Z,10.00
2019-05-05T16:42:16.304Z,10.00
2019-05-05T16:44:47.379Z,10.20
2019-05-05T16:47:18.840Z,10.30
2019-05-05T16:49:49.363Z,10.30
2019-05-05T16:52:26.135Z,10.30
2019-05-05T16:55:04.659Z,10.30
2019-05-05T16:57:36.749Z,10.50
2019-05-05T17:00:08.806Z,10.50
2019-05-05T17:02:44.086Z,10.50
2019-05-05T17:05:16.481Z,10.50
2019-05-05T17:07:47.920Z,10.40
2019-05-05T17:10:18.759Z,10.50
2019-05-05T17:12:49.392Z,10.40
2019-05-05T17:15:40.082Z,10.30
2019-05-05T17:18:35.203Z,10.20
2019-05-05T17:21:07.065Z,10.20
2019-05-05T17:23:37.687Z,10.20
2019-05-05T17:26:08.659Z,10.20
2019-05-05T17:28:41.160Z,10.30
2019-05-05T17:31:11.730Z,10.40
2019-05-05T17:33:45.621Z,10.50
2019-05-05T17:36:24.227Z,10.40
2019-05-05T17:38:54.852Z,10.50
2019-05-05T17:41:44.537Z,10.50
2019-05-05T17:44:33.660Z,10.20
2019-05-05T17:47:34.281Z,9.90
2019-05-05T17:50:24.616Z,9.70
2019-05-05T17:53:15.770Z,9.50
2019-05-05T17:55:46.388Z,9.40
2019-05-05T17:58:16.758Z,9.30
2019-05-05T18:00:57.582Z,9.30
2019-05-05T18:03:28.169Z,9.20
2019-05-05T18:06:23.983Z,9.20
2019-05-05T18:09:02.448Z,9.10
2019-05-05T18:11:44.201Z,9.10
2019-05-05T18:14:19.877Z,9.10
2019-05-05T18:16:54.239Z,9.20
2019-05-05T18:19:24.866Z,9.20
2019-05-05T18:21:56.371Z,9.20
2019-05-05T18:24:27.048Z,9.10
2019-05-05T18:26:57.699Z,9.00
2019-05-05T18:29:28.643Z,9.00
2019-05-05T18:31:59.686Z,9.10
2019-05-05T18:34:30.066Z,9.10
2019-05-05T18:37:00.690Z,9.10
2019-05-05T18:39:31.256Z,9.00
2019-05-05T18:42:13.965Z,8.90
2019-05-05T18:44:46.979Z,8.80
2019-05-05T18:47:21.236Z,8.80
2019-05-05T18:49:53.826Z,8.70
2019-05-05T18:52:24.586Z,8.50
2019-05-05T18:54:55.239Z,8.50
2019-05-05T18:57:26.306Z,8.40
2019-05-05T18:59:56.904Z,8.40
2019-05-05T19:02:44.128Z,8.30
2019-05-05T19:05:44.059Z,8.30
2019-05-05T19:08:24.476Z,8.20
2019-05-05T19:10:55.972Z,8.10
2019-05-05T19:13:26.527Z,8.10
2019-05-05T19:15:57.263Z,8.00
2019-05-05T19:18:28.047Z,8.00
2019-05-05T19:21:22.367Z,8.00
2019-05-05T19:23:54.206Z,7.90
2019-05-05T19:26:24.714Z,7.90
2019-05-05T19:28:55.416Z,7.90
2019-05-05T19:31:25.955Z,7.90
2019-05-05T19:33:56.711Z,7.90
2019-05-05T19:36:28.191Z,8.00
2019-05-05T19:38:58.939Z,8.00
2019-05-05T19:41:29.435Z,8.00
2019-05-05T19:44:01.957Z,8.00
2019-05-05T19:46:41.148Z,8.00
2019-05-05T19:49:18.260Z,8.00
2019-05-05T19:51:48.995Z,8.10
2019-05-05T19:54:19.679Z,8.10
2019-05-05T19:56:50.126Z,8.10
2019-05-05T19:59:20.695Z,8.20
2019-05-05T20:01:51.327Z,8.10
2019-05-05T20:04:24.130Z,8.10
2019-05-05T20:06:55.180Z,8.20
2019-05-05T20:09:25.727Z,8.20
2019-05-05T20:11:56.421Z,8.20
2019-05-05T20:14:27.088Z,8.20
2019-05-05T20:17:05.835Z,8.10
2019-05-05T20:19:40.698Z,8.10
2019-05-05T20:22:11.307Z,8.10
2019-05-05T20:24:41.757Z,8.20
2019-05-05T20:27:13.970Z,8.20
2019-05-05T20:29:44.490Z,8.20
2019-05-05T20:32:17.266Z,8.20
2019-05-05T20:35:23.958Z,8.20
2019-05-05T20:38:01.919Z,8.20
2019-05-05T20:40:35.200Z,8.20
2019-05-05T20:43:05.731Z,8.30
2019-05-05T20:45:38.408Z,8.30
2019-05-05T20:48:08.856Z,8.30
2019-05-05T20:50:39.407Z,8.30
2019-05-05T20:53:09.868Z,8.40
2019-05-05T20:55:40.485Z,8.30
2019-05-05T20:58:11.144Z,8.30
2019-05-05T21:00:41.604Z,8.30
2019-05-05T21:03:14.049Z,8.30
2019-05-05T21:05:44.389Z,8.30
2019-05-05T21:08:15.732Z,8.30
2019-05-05T21:10:46.340Z,8.20
2019-05-05T21:13:16.820Z,8.20
2019-05-05T21:15:47.195Z,8.20
2019-05-05T21:18:17.955Z,8.20
2019-05-05T21:20:48.471Z,8.20
2019-05-05T21:23:43.829Z,8.20
2019-05-05T21:26:23.478Z,8.20
2019-05-05T21:28:53.928Z,8.20
2019-05-05T21:31:24.539Z,8.20
2019-05-05T21:33:57.902Z,8.20
2019-05-05T21:36:28.291Z,8.10
2019-05-05T21:39:00.596Z,8.10
2019-05-05T21:41:33.819Z,8.00
2019-05-05T21:44:05.535Z,8.00
2019-05-05T21:46:44.923Z,8.00
2019-05-05T21:49:15.303Z,7.90
2019-05-05T21:52:14.333Z,7.80
2019-05-05T21:54:54.563Z,7.90
2019-05-05T21:57:44.668Z,7.70
2019-05-05T22:00:39.526Z,7.70
2019-05-05T22:03:14.021Z,7.60
2019-05-05T22:05:45.446Z,7.50
2019-05-05T22:08:16.202Z,7.40
2019-05-05T22:10:46.591Z,7.40
2019-05-05T22:13:17.134Z,7.30
2019-05-05T22:15:47.507Z,7.40
2019-05-05T22:18:17.984Z,7.30
2019-05-05T22:20:54.667Z,7.40
2019-05-05T22:23:25.238Z,7.30
2019-05-05T22:25:55.767Z,7.30
2019-05-05T22:28:26.663Z,7.30
2019-05-05T22:30:59.353Z,7.30
2019-05-05T22:33:33.840Z,7.30
2019-05-05T22:36:04.398Z,7.40
2019-05-05T22:38:36.012Z,7.40
2019-05-05T22:41:06.417Z,7.40
2019-05-05T22:43:38.075Z,7.50
2019-05-05T22:46:10.928Z,7.40
2019-05-05T22:48:44.756Z,7.40
2019-05-05T22:51:15.301Z,7.40
2019-05-05T22:53:45.703Z,7.40
2019-05-05T22:56:16.299Z,7.30
2019-05-05T22:58:46.892Z,7.10
2019-05-05T23:01:17.503Z,7.10
2019-05-05T23:04:05.083Z,7.20
2019-05-05T23:06:35.753Z,7.20
2019-05-05T23:09:09.884Z,7.20
2019-05-05T23:11:40.411Z,7.20
2019-05-05T23:14:29.336Z,7.10
2019-05-05T23:17:18.540Z,7.10
2019-05-05T23:19:54.883Z,7.00
2019-05-05T23:22:34.888Z,6.90
2019-05-05T23:25:14.555Z,6.80
2019-05-05T23:27:48.367Z,6.70
2019-05-05T23:30:19.488Z,6.60
2019-05-05T23:32:50.089Z,6.70
2019-05-05T23:35:20.811Z,6.70
2019-05-05T23:37:51.407Z,6.60
2019-05-05T23:40:24.599Z,6.50
2019-05-05T23:42:55.191Z,6.50
2019-05-05T23:45:25.859Z,6.50
2019-05-05T23:47:56.639Z,6.40
2019-05-05T23:50:31.299Z,6.40
2019-05-05T23:53:04.543Z,6.40
2019-05-05T23:55:35.124Z,6.30
2019-05-05T23:58:05.691Z,6.40
